Aspatria, United Kingdom

4:21 PM BST on July 28, 2015 (GMT +0100)
Lake District, Cumbria | | Change Station
CLOSE
Current Station
Personal Weather Station
Location: Cockermouth,
Elevation: 253 ft
Nearby Weather Stations

Elev 253 ft 54.66 °N, 3.35 °W | Updated 4 minutes ago

Light Rain
Light Rain
55.8 °F
Feels Like 55.8 °F
N
1.0
Wind Variable Wind from South
Gusts 2.0 mph

Today
High -- | Low -- °F
--% Chance of Precip.
Yesterday
High -- | Low -- °F
Precip. -- in
5:15 AM 9:22 PM
Waxing Gibbous, 90% visible
Pressure 29.65 in
Visibility 6.2 miles
Clouds Few 800 ft
Scattered Clouds 1400 ft
Mostly Cloudy 2700 ft
Dew Point 52 °F
Humidity 86%
Rainfall 0.46 in
Snow Depth Not available.
UV 4 out of 12
Pollen Not available.
Air Quality Not available.
Flu Activity Not available.
METAR EGNC 281450Z 16001KT 9999 7000SW -RA FEW008 SCT014 BKN027 12/10 Q1004

More Conditions Fewer Conditions

Pressure 29.65 in
Visibility 6.2 miles
Clouds Few 800 ft
Scattered Clouds 1400 ft
Mostly Cloudy 2700 ft
Dew Point 52 °F
Humidity 86%
Rainfall 0.46 in
Snow Depth Not available.
UV 4 out of 12
Pollen Not available.
Air Quality Not available.
Flu Activity Not available.
METAR EGNC 281450Z 16001KT 9999 7000SW -RA FEW008 SCT014 BKN027 12/10 Q1004

More Conditions Fewer Conditions

10-Day Weather Forecast

×

Almanac

Astronomy

Jul. 28, 2015 Rise Set
Actual Time
Civil Twilight
Nautical Twilight
Astronomical Twilight
Moon
Length of Visible Light
Length of Day
Tomorrow will be .
, % of the Moon is Illuminated

Today's Extremes

Country Highs Country Lows

Community

WunderPhotos

Upload Photos

1,841,852 photos uploaded!

WunderBlogs® & News

Nearby

Air Quality

  Air Quality AQ Index Pollutant
Not available.

Snow Depth

Station Depth Elevation

Earthquake Activity

City Distance Mag. Time & Date
Minimum magnitude displayed is 2.5.

Coastal Water Temperatures

Place Temperature

Stations

Nearby Weather Stations

Station Location Temp. Windchill Dew Point Humidity Wind Precip. Elev Updated Type